createdAt,value
2017-12-19T00:01:48.895Z,4.28
2017-12-19T00:04:16.032Z,4.37
2017-12-19T00:06:42.248Z,3.60
2017-12-19T00:09:09.485Z,4.60
2017-12-19T00:11:35.618Z,3.83
2017-12-19T00:14:01.976Z,4.55
2017-12-19T00:16:28.102Z,4.50
2017-12-19T00:18:54.428Z,4.10
2017-12-19T00:21:20.699Z,4.12
2017-12-19T00:23:47.070Z,4.50
2017-12-19T00:26:13.216Z,3.55
2017-12-19T00:28:39.550Z,3.67
2017-12-19T00:31:05.786Z,4.25
2017-12-19T00:33:32.010Z,3.55
2017-12-19T00:35:58.257Z,4.07
2017-12-19T00:38:24.388Z,3.83
2017-12-19T00:40:50.706Z,3.67
2017-12-19T00:43:16.866Z,4.18
2017-12-19T00:45:43.371Z,3.87
2017-12-19T00:48:09.709Z,4.25
2017-12-19T00:50:35.991Z,3.60
2017-12-19T00:53:02.155Z,4.10
2017-12-19T00:55:28.389Z,3.45
2017-12-19T00:57:54.638Z,4.03
2017-12-19T01:00:20.978Z,3.92
2017-12-19T01:02:47.202Z,4.25
2017-12-19T01:05:13.325Z,4.12
2017-12-19T01:07:39.473Z,4.57
2017-12-19T01:10:05.651Z,4.00
2017-12-19T01:12:31.845Z,4.55
2017-12-19T01:14:58.003Z,4.60
2017-12-19T01:17:24.171Z,4.10
2017-12-19T01:19:50.999Z,4.05
2017-12-19T01:22:17.286Z,4.10
2017-12-19T01:24:43.579Z,4.65
2017-12-19T01:27:09.791Z,4.70
2017-12-19T01:29:36.120Z,3.67
2017-12-19T01:32:02.229Z,4.25
2017-12-19T01:34:28.476Z,4.15
2017-12-19T01:36:54.598Z,3.70
2017-12-19T01:39:20.684Z,3.58
2017-12-19T01:41:46.779Z,5.03
2017-12-19T01:44:12.979Z,4.70
2017-12-19T01:46:39.097Z,4.28
2017-12-19T01:49:05.318Z,4.95
2017-12-19T01:51:31.446Z,4.32
2017-12-19T01:53:57.534Z,3.67
2017-12-19T01:56:23.645Z,3.70
2017-12-19T01:58:49.846Z,3.80
2017-12-19T02:01:16.201Z,3.50
2017-12-19T02:03:42.255Z,4.10
2017-12-19T02:06:08.298Z,4.78
2017-12-19T02:08:34.545Z,3.80
2017-12-19T02:11:00.605Z,4.78
2017-12-19T02:13:26.721Z,4.50
2017-12-19T02:15:52.765Z,4.28
2017-12-19T02:18:18.963Z,5.18
2017-12-19T02:20:46.191Z,4.28
2017-12-19T02:23:12.514Z,4.43
2017-12-19T02:25:38.751Z,4.30
2017-12-19T02:28:04.885Z,4.72
2017-12-19T02:30:31.093Z,4.72
2017-12-19T02:32:57.303Z,4.32
2017-12-19T02:35:23.579Z,5.50
2017-12-19T02:37:49.953Z,5.30
2017-12-19T02:40:16.021Z,5.37
2017-12-19T02:42:55.310Z,5.32
2017-12-19T02:45:21.473Z,4.68
2017-12-19T02:47:47.592Z,4.30
2017-12-19T02:50:13.781Z,5.25
2017-12-19T02:52:39.997Z,5.60
2017-12-19T02:55:07.246Z,6.10
2017-12-19T02:57:33.314Z,5.50
2017-12-19T03:00:00.226Z,5.97
2017-12-19T03:02:27.349Z,5.53
2017-12-19T03:04:53.522Z,4.87
2017-12-19T03:07:19.768Z,4.95
2017-12-19T03:09:46.122Z,4.18
2017-12-19T03:12:12.257Z,5.20
2017-12-19T03:14:38.404Z,4.10
2017-12-19T03:17:04.711Z,4.55
2017-12-19T03:19:30.944Z,4.53
2017-12-19T03:21:57.175Z,4.53
2017-12-19T03:24:23.385Z,4.97
2017-12-19T03:26:49.528Z,4.72
2017-12-19T03:29:15.857Z,5.53
2017-12-19T03:31:41.988Z,9.52
2017-12-19T03:34:08.169Z,7.00
2017-12-19T03:36:34.355Z,5.85
2017-12-19T03:39:00.491Z,6.12
2017-12-19T03:41:26.599Z,5.87
2017-12-19T03:43:52.745Z,5.20
2017-12-19T03:46:19.037Z,6.55
2017-12-19T03:48:45.283Z,8.00
2017-12-19T03:51:11.622Z,7.25
2017-12-19T03:53:37.840Z,6.57
2017-12-19T03:56:04.266Z,6.50
2017-12-19T03:58:30.423Z,6.50
2017-12-19T04:00:56.830Z,5.20
2017-12-19T04:03:23.606Z,6.35
2017-12-19T04:05:49.689Z,5.10
2017-12-19T04:08:15.937Z,5.72
2017-12-19T04:10:42.051Z,6.78
2017-12-19T04:13:08.841Z,5.82
2017-12-19T04:15:35.107Z,5.00
2017-12-19T04:18:01.516Z,6.15
2017-12-19T04:20:27.683Z,4.78
2017-12-19T04:22:53.954Z,4.47
2017-12-19T04:25:20.098Z,4.90
2017-12-19T04:27:46.220Z,4.68
2017-12-19T04:30:12.492Z,5.55
2017-12-19T04:32:38.592Z,7.70
2017-12-19T04:35:04.713Z,5.32
2017-12-19T04:37:30.958Z,5.53
2017-12-19T04:39:57.104Z,6.00
2017-12-19T04:42:23.188Z,5.80
2017-12-19T04:44:49.391Z,6.03
2017-12-19T04:47:15.568Z,5.07
2017-12-19T04:49:41.723Z,5.75
2017-12-19T04:52:08.113Z,5.78
2017-12-19T04:54:34.308Z,6.82
2017-12-19T04:57:00.469Z,6.50
2017-12-19T04:59:26.534Z,6.00
2017-12-19T05:01:53.219Z,5.47
2017-12-19T05:04:19.557Z,5.20
2017-12-19T05:06:45.774Z,5.65
2017-12-19T05:09:12.346Z,5.45
2017-12-19T05:11:39.222Z,5.80
2017-12-19T05:14:06.083Z,4.85
2017-12-19T05:16:32.606Z,5.15
2017-12-19T05:19:01.792Z,5.45
2017-12-19T05:21:28.435Z,4.72
2017-12-19T05:23:55.256Z,5.20
2017-12-19T05:26:21.761Z,4.97
2017-12-19T05:28:48.395Z,5.82
2017-12-19T05:31:15.067Z,6.00
2017-12-19T05:33:41.603Z,5.35
2017-12-19T05:36:08.417Z,5.85
2017-12-19T05:38:35.076Z,5.60
2017-12-19T05:57:57.670Z,5.40
2017-12-19T06:03:00.168Z,4.73
2017-12-19T06:05:31.283Z,4.85
2017-12-19T06:10:34.896Z,5.55
2017-12-19T06:13:01.444Z,5.82
2017-12-19T06:15:27.984Z,4.95
2017-12-19T06:17:56.849Z,5.50
2017-12-19T06:20:23.798Z,6.05
2017-12-19T06:22:50.553Z,5.57
2017-12-19T06:25:18.124Z,5.07
2017-12-19T06:30:17.181Z,6.35
2017-12-19T06:32:44.112Z,6.90
2017-12-19T06:35:11.048Z,5.50
2017-12-19T06:37:37.683Z,6.03
2017-12-19T06:40:04.026Z,5.95
2017-12-19T06:42:30.556Z,7.50
2017-12-19T06:44:57.096Z,6.22
2017-12-19T06:47:23.945Z,6.00
2017-12-19T06:49:50.534Z,5.40
2017-12-19T06:52:17.278Z,5.80
2017-12-19T06:54:43.747Z,5.40
2017-12-19T06:57:10.480Z,4.70
2017-12-19T06:59:37.163Z,5.32
2017-12-19T07:02:03.649Z,5.12
2017-12-19T07:04:30.007Z,4.95
2017-12-19T07:06:56.396Z,6.55
2017-12-19T07:09:22.962Z,5.97
2017-12-19T07:11:49.603Z,6.57
2017-12-19T07:14:16.392Z,4.62
2017-12-19T07:16:43.024Z,5.60
2017-12-19T07:19:09.510Z,5.05
2017-12-19T07:21:36.633Z,5.20
2017-12-19T07:24:03.126Z,5.57
2017-12-19T07:26:29.529Z,6.68
2017-12-19T07:28:56.077Z,5.10
2017-12-19T07:31:22.639Z,4.90
2017-12-19T07:33:48.960Z,4.75
2017-12-19T07:36:15.404Z,4.53
2017-12-19T07:38:41.571Z,5.80
2017-12-19T07:41:07.703Z,4.32
2017-12-19T07:43:33.950Z,5.30
2017-12-19T07:46:00.072Z,6.97
2017-12-19T07:48:26.203Z,5.70
2017-12-19T07:50:52.469Z,5.53
2017-12-19T07:53:18.691Z,5.95
2017-12-19T07:55:44.934Z,5.18
2017-12-19T07:58:11.069Z,5.82
2017-12-19T08:00:37.184Z,6.05
2017-12-19T08:03:03.269Z,5.07
2017-12-19T08:05:29.373Z,6.65
2017-12-19T08:07:55.575Z,6.62
2017-12-19T08:10:21.699Z,6.25
2017-12-19T08:12:47.860Z,5.37
2017-12-19T08:15:14.177Z,5.50
2017-12-19T08:17:40.415Z,5.25
2017-12-19T08:20:06.763Z,5.12
2017-12-19T08:22:33.013Z,5.90
2017-12-19T08:24:59.253Z,5.55
2017-12-19T08:27:25.525Z,5.15
2017-12-19T08:29:51.780Z,5.50
2017-12-19T08:32:18.219Z,7.72
2017-12-19T08:34:44.783Z,7.53
2017-12-19T08:37:11.003Z,9.32
2017-12-19T08:39:37.077Z,7.45
2017-12-19T08:42:03.449Z,6.53
2017-12-19T08:44:29.465Z,6.80
2017-12-19T08:46:55.583Z,6.72
2017-12-19T08:49:22.908Z,6.10
2017-12-19T08:51:48.973Z,6.50
2017-12-19T08:54:15.222Z,6.70
2017-12-19T08:56:41.346Z,7.22
2017-12-19T08:59:07.608Z,7.40
2017-12-19T09:01:33.801Z,6.78
2017-12-19T09:03:59.935Z,7.78
2017-12-19T09:06:26.068Z,6.43
2017-12-19T09:08:52.109Z,7.50
2017-12-19T09:11:18.315Z,7.20
2017-12-19T09:13:44.431Z,7.15
2017-12-19T09:16:10.590Z,7.87
2017-12-19T09:18:36.718Z,8.38
2017-12-19T09:21:02.836Z,9.23
2017-12-19T09:23:28.845Z,8.88
2017-12-19T09:25:54.862Z,7.95
2017-12-19T09:28:21.442Z,8.20
2017-12-19T09:30:47.554Z,9.13
2017-12-19T09:33:13.645Z,7.97
2017-12-19T09:35:39.652Z,7.75
2017-12-19T09:38:07.123Z,7.43
2017-12-19T09:40:33.181Z,7.68
2017-12-19T09:42:59.244Z,6.62
2017-12-19T09:45:25.446Z,6.93
2017-12-19T09:47:51.485Z,7.12
2017-12-19T09:50:17.590Z,7.20
2017-12-19T09:52:43.683Z,7.28
2017-12-19T09:55:09.877Z,7.70
2017-12-19T09:57:35.987Z,7.97
2017-12-19T10:00:02.183Z,6.18
2017-12-19T10:02:28.334Z,7.43
2017-12-19T10:04:54.438Z,6.10
2017-12-19T10:07:20.518Z,6.82
2017-12-19T10:09:46.672Z,7.43
2017-12-19T10:12:12.796Z,9.95
2017-12-19T10:14:38.993Z,9.35
2017-12-19T10:17:05.139Z,7.35
2017-12-19T10:19:31.273Z,8.25
2017-12-19T10:21:57.337Z,7.62
2017-12-19T10:24:23.426Z,7.40
2017-12-19T10:26:49.486Z,7.45
2017-12-19T10:29:15.906Z,6.93
2017-12-19T10:31:42.175Z,7.47
2017-12-19T10:34:08.596Z,6.55
2017-12-19T10:36:35.190Z,5.95
2017-12-19T10:39:02.208Z,6.80
2017-12-19T10:41:28.800Z,6.82
2017-12-19T10:43:55.361Z,7.03
2017-12-19T10:46:21.948Z,6.32
2017-12-19T10:48:48.221Z,6.90
2017-12-19T10:51:15.421Z,7.00
2017-12-19T10:53:41.770Z,7.25
2017-12-19T10:56:08.291Z,7.45
2017-12-19T10:58:34.633Z,6.90
2017-12-19T11:01:01.813Z,8.20
2017-12-19T11:03:28.212Z,7.25
2017-12-19T11:05:54.835Z,7.90
2017-12-19T11:08:30.307Z,7.80
2017-12-19T11:10:56.507Z,7.65
2017-12-19T11:13:41.484Z,7.62
2017-12-19T11:16:08.184Z,7.70
2017-12-19T11:18:34.471Z,7.35
2017-12-19T11:21:00.814Z,7.80
2017-12-19T11:23:27.491Z,7.17
2017-12-19T11:25:56.973Z,7.63
2017-12-19T11:28:23.283Z,7.70
2017-12-19T11:30:50.143Z,7.10
2017-12-19T11:33:16.781Z,7.13
2017-12-19T11:35:43.695Z,8.20
2017-12-19T11:38:10.008Z,7.90
2017-12-19T11:40:37.057Z,7.67
2017-12-19T11:43:04.258Z,7.93
2017-12-19T11:45:30.382Z,8.37
2017-12-19T11:47:56.566Z,7.93
2017-12-19T11:50:25.303Z,8.60
2017-12-19T11:52:53.523Z,7.80
2017-12-19T11:55:19.725Z,7.80
2017-12-19T11:57:46.149Z,7.57
2017-12-19T12:00:12.781Z,8.67
2017-12-19T12:02:43.128Z,9.00
2017-12-19T12:05:10.632Z,8.83
2017-12-19T12:07:37.013Z,8.03
2017-12-19T12:10:03.602Z,8.17
2017-12-19T12:12:35.994Z,7.33
2017-12-19T12:15:02.813Z,7.80
2017-12-19T12:17:29.396Z,7.27
2017-12-19T12:19:56.124Z,7.20
2017-12-19T12:22:22.916Z,6.70
2017-12-19T12:24:54.119Z,7.83
2017-12-19T12:27:20.926Z,8.10
2017-12-19T12:29:47.695Z,7.70
2017-12-19T12:32:14.222Z,6.82
2017-12-19T12:34:41.889Z,7.23
2017-12-19T12:37:08.824Z,6.40
2017-12-19T12:39:34.891Z,6.77
2017-12-19T12:42:01.039Z,8.00
2017-12-19T12:44:27.152Z,7.50
2017-12-19T12:46:53.359Z,6.18
2017-12-19T12:49:19.499Z,7.32
2017-12-19T12:51:45.589Z,8.10
2017-12-19T12:54:11.734Z,7.57
2017-12-19T12:56:38.930Z,7.20
2017-12-19T12:59:05.479Z,6.57
2017-12-19T13:01:31.933Z,7.22
2017-12-19T13:03:58.154Z,5.53
2017-12-19T13:06:24.653Z,5.97
2017-12-19T13:08:51.154Z,5.95
2017-12-19T13:11:17.352Z,6.30
2017-12-19T13:13:43.738Z,6.53
2017-12-19T13:16:10.398Z,6.80
2017-12-19T13:18:36.492Z,6.87
2017-12-19T13:21:02.710Z,6.03
2017-12-19T13:23:29.268Z,6.45
2017-12-19T13:25:55.615Z,6.15
2017-12-19T13:28:21.860Z,5.25
2017-12-19T13:30:48.100Z,5.90
2017-12-19T13:33:14.676Z,6.40
2017-12-19T13:35:41.042Z,6.05
2017-12-19T13:38:07.512Z,5.43
2017-12-19T13:40:33.936Z,5.30
2017-12-19T13:43:00.263Z,6.55
2017-12-19T13:45:26.502Z,6.90
2017-12-19T13:47:52.726Z,6.35
2017-12-19T13:50:19.314Z,5.95
2017-12-19T13:52:45.550Z,7.70
2017-12-19T13:55:11.757Z,6.57
2017-12-19T13:57:38.112Z,7.07
2017-12-19T14:00:04.228Z,6.80
2017-12-19T14:02:35.659Z,5.90
2017-12-19T14:05:02.440Z,6.07
2017-12-19T14:07:28.474Z,6.45
2017-12-19T14:09:55.029Z,6.32
2017-12-19T14:12:21.151Z,6.78
2017-12-19T14:14:47.194Z,6.35
2017-12-19T14:17:20.274Z,6.50
2017-12-19T14:19:46.439Z,5.47
2017-12-19T14:22:12.566Z,6.55
2017-12-19T14:24:38.685Z,7.18
2017-12-19T14:27:04.893Z,12.55
2017-12-19T14:29:31.396Z,8.88
2017-12-19T14:31:58.031Z,6.95
2017-12-19T14:34:24.533Z,6.72
2017-12-19T14:36:50.895Z,7.28
2017-12-19T14:39:17.448Z,7.05
2017-12-19T14:41:43.965Z,7.32
2017-12-19T14:44:10.390Z,6.95
2017-12-19T14:46:37.082Z,6.37
2017-12-19T14:49:03.572Z,6.50
2017-12-19T14:51:30.170Z,6.00
2017-12-19T14:53:56.718Z,7.00
2017-12-19T14:56:24.377Z,6.80
2017-12-19T14:58:51.185Z,6.12
2017-12-19T15:01:17.251Z,6.15
2017-12-19T15:03:43.293Z,6.80
2017-12-19T15:06:09.862Z,6.25
2017-12-19T15:08:36.566Z,6.70
2017-12-19T15:11:02.926Z,7.30
2017-12-19T15:13:29.388Z,7.93
2017-12-19T15:15:55.896Z,6.37
2017-12-19T15:18:22.268Z,6.37
2017-12-19T15:20:48.869Z,5.30
2017-12-19T15:25:52.486Z,7.40
2017-12-19T15:30:58.769Z,6.60
2017-12-19T15:36:01.665Z,6.97
2017-12-19T15:38:32.069Z,7.12
2017-12-19T15:43:34.325Z,5.75
2017-12-19T15:46:06.612Z,5.85
2017-12-19T15:51:12.386Z,5.93
2017-12-19T15:56:16.913Z,5.57
2017-12-19T16:09:28.322Z,5.30
2017-12-19T16:12:18.887Z,11.50
2017-12-19T16:14:46.642Z,8.40
2017-12-19T16:17:12.926Z,7.93
2017-12-19T16:19:39.276Z,7.22
2017-12-19T16:22:05.675Z,5.45
2017-12-19T16:24:31.908Z,7.10
2017-12-19T16:26:58.510Z,5.70
2017-12-19T16:29:24.874Z,6.50
2017-12-19T16:31:51.212Z,4.90
2017-12-19T16:34:21.214Z,6.87
2017-12-19T16:36:48.496Z,6.35
2017-12-19T16:39:20.868Z,7.05
2017-12-19T16:41:48.406Z,8.25
2017-12-19T16:44:18.532Z,7.67
2017-12-19T16:46:46.382Z,7.05
2017-12-19T16:49:15.198Z,6.93
2017-12-19T16:51:42.639Z,6.07
2017-12-19T16:54:08.959Z,5.72
2017-12-19T16:56:35.184Z,5.95
2017-12-19T16:59:01.985Z,5.28
2017-12-19T17:01:28.151Z,5.80
2017-12-19T17:03:59.006Z,6.85
2017-12-19T17:06:26.976Z,6.90
2017-12-19T17:08:53.683Z,6.22
2017-12-19T17:11:20.454Z,6.00
2017-12-19T17:13:47.348Z,5.32
2017-12-19T17:16:14.236Z,6.00
2017-12-19T17:18:41.486Z,6.12
2017-12-19T17:21:10.991Z,6.03
2017-12-19T17:23:37.819Z,5.12
2017-12-19T17:26:06.129Z,5.85
2017-12-19T17:28:36.511Z,7.65
2017-12-19T17:31:08.533Z,7.40
2017-12-19T17:36:45.301Z,6.47
2017-12-19T17:39:19.211Z,6.65
2017-12-19T17:41:46.364Z,7.30
2017-12-19T17:44:24.265Z,6.32
2017-12-19T17:46:51.501Z,6.70
2017-12-19T17:51:51.361Z,5.70
2017-12-19T17:54:18.774Z,7.03
2017-12-19T17:56:44.991Z,5.70
2017-12-19T17:59:11.385Z,6.15
2017-12-19T18:01:38.148Z,7.18
2017-12-19T18:04:04.602Z,6.80
2017-12-19T18:06:30.954Z,6.00
2017-12-19T18:08:57.266Z,6.15
2017-12-19T18:13:54.720Z,7.68
2017-12-19T18:16:21.080Z,8.05
2017-12-19T18:18:47.395Z,8.13
2017-12-19T18:21:13.968Z,8.57
2017-12-19T18:23:40.304Z,6.55
2017-12-19T18:26:06.597Z,5.40
2017-12-19T18:28:33.134Z,6.07
2017-12-19T18:31:01.559Z,6.65
2017-12-19T18:33:27.710Z,6.22
2017-12-19T18:35:54.371Z,6.13
2017-12-19T18:38:20.845Z,6.43
2017-12-19T18:40:47.343Z,8.60
2017-12-19T18:43:14.695Z,8.15
2017-12-19T18:45:40.826Z,7.00
2017-12-19T18:48:07.164Z,6.57
2017-12-19T18:53:05.021Z,5.80
2017-12-19T18:55:31.282Z,5.60
2017-12-19T18:57:57.595Z,6.60
2017-12-19T19:00:23.794Z,5.90
2017-12-19T19:02:50.092Z,6.35
2017-12-19T19:05:16.628Z,5.95
2017-12-19T19:07:43.064Z,5.35
2017-12-19T19:10:09.880Z,4.95
2017-12-19T19:12:37.329Z,5.70
2017-12-19T19:15:03.820Z,5.50
2017-12-19T19:17:32.837Z,5.60
2017-12-19T19:19:59.308Z,5.60
2017-12-19T19:22:29.858Z,5.50
2017-12-19T19:24:56.394Z,5.00
2017-12-19T19:27:23.120Z,5.00
2017-12-19T19:29:54.255Z,5.62
2017-12-19T19:32:23.372Z,5.50
2017-12-19T19:34:52.124Z,5.30
2017-12-19T19:37:20.097Z,5.00
2017-12-19T19:39:48.319Z,5.15
2017-12-19T19:45:09.698Z,5.53
2017-12-19T19:47:38.866Z,5.20
2017-12-19T19:50:17.848Z,5.15
2017-12-19T19:52:47.980Z,6.53
2017-12-19T19:55:17.072Z,5.85
2017-12-19T19:57:47.203Z,6.07
2017-12-19T20:00:21.967Z,5.72
2017-12-19T20:02:51.951Z,6.17
2017-12-19T20:05:19.981Z,5.90
2017-12-19T20:07:50.172Z,5.78
2017-12-19T20:10:19.297Z,6.22
2017-12-19T20:12:47.202Z,9.13
2017-12-19T20:15:19.048Z,7.68
2017-12-19T20:17:47.953Z,6.62
2017-12-19T20:20:16.655Z,5.80
2017-12-19T20:22:43.866Z,6.05
2017-12-19T20:25:11.243Z,6.10
2017-12-19T20:27:39.057Z,6.20
2017-12-19T20:30:06.468Z,7.22
2017-12-19T20:32:35.912Z,5.65
2017-12-19T20:35:04.209Z,5.32
2017-12-19T20:37:33.471Z,6.12
2017-12-19T20:40:00.785Z,5.40
2017-12-19T20:42:29.008Z,6.20
2017-12-19T20:44:56.924Z,6.03
2017-12-19T20:47:25.373Z,5.68
2017-12-19T20:49:52.646Z,5.40
2017-12-19T20:52:20.123Z,5.75
2017-12-19T20:54:47.448Z,5.32
2017-12-19T20:57:14.840Z,4.62
2017-12-19T20:59:42.502Z,5.70
2017-12-19T21:02:09.379Z,5.07
2017-12-19T21:04:36.892Z,5.20
2017-12-19T21:07:03.986Z,4.03
2017-12-19T21:09:33.353Z,5.20
2017-12-19T21:12:02.645Z,3.80
2017-12-19T21:14:32.828Z,5.55
2017-12-19T21:17:00.400Z,4.63
2017-12-19T21:19:27.646Z,5.00
2017-12-19T21:24:28.323Z,5.53
2017-12-19T21:26:56.654Z,4.40
2017-12-19T21:29:22.978Z,4.68
2017-12-19T21:31:49.940Z,5.68
2017-12-19T21:34:17.521Z,7.12
2017-12-19T21:36:44.026Z,6.82
2017-12-19T21:39:12.389Z,7.25
2017-12-19T21:41:39.046Z,6.37
2017-12-19T21:44:05.428Z,7.68
2017-12-19T21:46:31.732Z,6.63
2017-12-19T21:48:58.530Z,5.10
2017-12-19T21:51:24.875Z,5.50
2017-12-19T21:53:51.274Z,5.18
2017-12-19T21:56:18.020Z,4.80
2017-12-19T21:58:46.071Z,5.00
2017-12-19T22:01:12.533Z,4.62
2017-12-19T22:03:39.158Z,4.93
2017-12-19T22:06:05.771Z,4.95
2017-12-19T22:08:32.106Z,5.25
2017-12-19T22:10:58.466Z,8.07
2017-12-19T22:13:25.103Z,5.55
2017-12-19T22:15:51.300Z,5.03
2017-12-19T22:18:17.753Z,4.97
2017-12-19T22:20:44.764Z,5.03
2017-12-19T22:23:11.320Z,4.62
2017-12-19T22:25:38.040Z,5.10
2017-12-19T22:28:05.170Z,4.85
2017-12-19T22:30:31.616Z,5.50
2017-12-19T22:32:58.073Z,4.97
2017-12-19T22:35:24.408Z,5.60
2017-12-19T22:37:50.522Z,5.20
2017-12-19T22:40:16.738Z,5.43
2017-12-19T22:42:43.115Z,7.10
2017-12-19T22:45:09.368Z,6.10
2017-12-19T22:47:35.834Z,5.80
2017-12-19T22:50:02.313Z,5.25
2017-12-19T22:52:28.720Z,4.75
2017-12-19T22:54:54.873Z,5.43
2017-12-19T22:57:22.283Z,5.12
2017-12-19T22:59:48.632Z,4.72
2017-12-19T23:02:14.972Z,5.40
2017-12-19T23:04:41.409Z,5.57
2017-12-19T23:07:08.028Z,4.62
2017-12-19T23:09:34.359Z,5.05
2017-12-19T23:12:00.432Z,5.53
2017-12-19T23:14:26.981Z,4.40
2017-12-19T23:16:53.212Z,4.10
2017-12-19T23:19:19.508Z,6.10
2017-12-19T23:21:45.771Z,5.45
2017-12-19T23:24:11.976Z,6.60
2017-12-19T23:26:38.390Z,7.97
2017-12-19T23:29:04.824Z,6.20
2017-12-19T23:31:31.118Z,5.30
2017-12-19T23:33:57.493Z,5.55
2017-12-19T23:36:23.624Z,5.35
2017-12-19T23:38:49.939Z,5.47
2017-12-19T23:41:16.170Z,6.65
2017-12-19T23:43:42.402Z,6.47
2017-12-19T23:46:08.525Z,5.05
2017-12-19T23:48:34.678Z,4.55
2017-12-19T23:51:00.900Z,5.15
2017-12-19T23:53:27.400Z,4.65
2017-12-19T23:55:53.648Z,4.62
2017-12-19T23:58:19.885Z,4.10
